EGKB

London Biggin Hill Airport

London, United Kingdom
METAR EGKB 162120Z 32007KT 9999 BKN010 04/03 Q1021
Observed Flight Rules
Dec-16 @ 21:20 UTC (9 hours ago) Marginal Visual Flight Rules
Wind Visibility Clouds
320° at 7 knots 10,000+ meters
  • Broken at 1,000' AGL
Temperatures Readings
Current 4°C / 39°F
Dewpoint 3°C / 37°F
Humidity 93%
Altimeter 30.15" Hg
Pressure 1021 hPa
Elevation 183
METAR EGKB 162120Z 32007KT 9999 BKN010 04/03 Q1021
Observed Flight Rules
Dec-16 @ 21:20 UTC
(9 hours ago)
MVFR
Wind Visibility
320° at 7 knots 10,000+ meters
Clouds
  • Broken at 1,000' AGL
Temperature Dewpoint
4°C / 39°F 3°C / 37°F
Humidity Altimeter Pressure
93% 30.15" Hg 1021 hPa